createdAt,value
2017-11-03T00:00:10.438Z,18.00
2017-11-03T00:01:15.585Z,18.00
2017-11-03T00:02:20.854Z,18.00
2017-11-03T00:03:25.803Z,18.00
2017-11-03T00:04:31.502Z,18.00
2017-11-03T00:05:37.903Z,18.00
2017-11-03T00:06:43.013Z,18.00
2017-11-03T00:07:48.025Z,18.00
2017-11-03T00:08:53.067Z,18.00
2017-11-03T00:09:58.176Z,18.00
2017-11-03T00:11:03.549Z,18.00
2017-11-03T00:12:08.454Z,18.00
2017-11-03T00:13:13.505Z,18.00
2017-11-03T00:14:18.386Z,18.00
2017-11-03T00:15:23.543Z,18.00
2017-11-03T00:16:28.755Z,18.00
2017-11-03T00:19:01.854Z,18.00
2017-11-03T00:20:07.293Z,18.00
2017-11-03T00:21:12.927Z,18.00
2017-11-03T00:22:18.175Z,18.00
2017-11-03T00:23:23.243Z,18.00
2017-11-03T00:24:28.516Z,18.00
2017-11-03T00:25:33.759Z,18.00
2017-11-03T00:26:39.007Z,18.00
2017-11-03T00:27:43.682Z,18.00
2017-11-03T00:28:48.439Z,18.00
2017-11-03T00:29:53.103Z,18.00
2017-11-03T00:30:57.748Z,18.00
2017-11-03T00:32:02.449Z,18.00
2017-11-03T00:33:07.092Z,18.00
2017-11-03T00:34:11.829Z,18.00
2017-11-03T00:35:16.493Z,17.90
2017-11-03T00:36:21.308Z,17.90
2017-11-03T00:37:25.976Z,17.90
2017-11-03T00:38:30.795Z,17.90
2017-11-03T00:39:35.520Z,17.90
2017-11-03T00:40:40.278Z,17.90
2017-11-03T00:41:44.993Z,17.90
2017-11-03T00:42:49.686Z,17.90
2017-11-03T00:43:54.285Z,17.90
2017-11-03T00:44:58.885Z,17.90
2017-11-03T00:46:03.603Z,17.90
2017-11-03T00:47:08.408Z,17.90
2017-11-03T00:48:13.124Z,17.90
2017-11-03T00:49:17.981Z,17.90
2017-11-03T00:50:22.692Z,17.90
2017-11-03T00:51:27.338Z,17.90
2017-11-03T00:52:32.032Z,17.90
2017-11-03T00:53:36.802Z,17.90
2017-11-03T00:54:41.516Z,17.90
2017-11-03T00:55:46.330Z,17.90
2017-11-03T00:56:51.024Z,17.90
2017-11-03T00:57:55.697Z,17.90
2017-11-03T00:59:00.405Z,17.90
2017-11-03T01:00:05.136Z,17.90
2017-11-03T01:01:09.791Z,17.90
2017-11-03T01:02:14.576Z,17.90
2017-11-03T01:03:19.119Z,17.90
2017-11-03T01:04:23.873Z,17.90
2017-11-03T01:05:28.540Z,17.90
2017-11-03T01:06:33.261Z,17.90
2017-11-03T01:07:37.941Z,17.90
2017-11-03T01:08:42.491Z,17.90
2017-11-03T01:09:47.133Z,17.90
2017-11-03T01:10:51.809Z,17.90
2017-11-03T01:11:56.591Z,17.90
2017-11-03T01:13:01.343Z,17.90
2017-11-03T01:14:06.168Z,17.90
2017-11-03T01:15:10.753Z,17.90
2017-11-03T01:16:15.536Z,17.90
2017-11-03T01:17:21.032Z,17.90
2017-11-03T01:18:25.786Z,17.90
2017-11-03T01:19:30.475Z,17.90
2017-11-03T01:20:35.203Z,17.90
2017-11-03T01:21:39.957Z,17.90
2017-11-03T01:22:44.757Z,17.90
2017-11-03T01:23:49.590Z,17.90
2017-11-03T01:24:54.341Z,17.90
2017-11-03T01:25:59.099Z,17.90
2017-11-03T01:27:03.846Z,17.90
2017-11-03T01:28:08.446Z,17.90
2017-11-03T01:29:13.034Z,17.90
2017-11-03T01:30:17.812Z,17.90
2017-11-03T01:31:23.729Z,17.90
2017-11-03T01:32:28.385Z,17.90
2017-11-03T01:33:33.071Z,17.90
2017-11-03T01:34:37.765Z,17.90
2017-11-03T01:35:42.395Z,17.90
2017-11-03T01:36:47.122Z,17.90
2017-11-03T01:37:51.678Z,17.90
2017-11-03T01:38:56.396Z,17.90
2017-11-03T01:40:01.114Z,17.90
2017-11-03T01:41:05.773Z,17.90
2017-11-03T01:42:10.409Z,17.90
2017-11-03T01:43:15.018Z,17.90
2017-11-03T01:44:19.718Z,17.90
2017-11-03T01:45:24.441Z,17.90
2017-11-03T01:46:29.264Z,17.90
2017-11-03T01:47:34.141Z,17.90
2017-11-03T01:48:38.836Z,17.90
2017-11-03T01:49:43.536Z,17.90
2017-11-03T01:50:48.332Z,17.90
2017-11-03T01:51:53.153Z,17.90
2017-11-03T01:52:57.887Z,17.90
2017-11-03T01:54:02.768Z,17.90
2017-11-03T01:55:07.590Z,17.90
2017-11-03T01:56:12.469Z,17.90
2017-11-03T01:57:17.065Z,17.90
2017-11-03T01:58:21.738Z,17.90
2017-11-03T01:59:26.451Z,17.90
2017-11-03T02:00:31.174Z,17.90
2017-11-03T02:01:35.724Z,17.90
2017-11-03T02:02:40.369Z,17.90
2017-11-03T02:03:45.198Z,17.90
2017-11-03T02:04:49.974Z,17.90
2017-11-03T02:05:54.873Z,17.90
2017-11-03T02:06:59.657Z,17.90
2017-11-03T02:08:04.323Z,17.90
2017-11-03T02:09:08.837Z,17.90
2017-11-03T02:10:13.378Z,17.90
2017-11-03T02:11:18.068Z,17.90
2017-11-03T02:12:22.782Z,17.90
2017-11-03T02:13:27.452Z,17.90
2017-11-03T02:14:32.286Z,17.90
2017-11-03T02:15:36.993Z,17.90
2017-11-03T02:16:41.736Z,17.90
2017-11-03T02:17:46.411Z,17.90
2017-11-03T02:18:51.196Z,17.90
2017-11-03T02:19:55.870Z,17.90
2017-11-03T02:21:00.718Z,17.80
2017-11-03T02:22:05.361Z,17.80
2017-11-03T02:23:10.127Z,17.90
2017-11-03T02:24:14.936Z,17.80
2017-11-03T02:25:19.671Z,17.80
2017-11-03T02:26:24.381Z,17.80
2017-11-03T02:27:28.931Z,17.90
2017-11-03T02:28:33.730Z,17.80
2017-11-03T02:29:38.396Z,17.80
2017-11-03T02:30:43.069Z,17.90
2017-11-03T02:31:47.692Z,17.80
2017-11-03T02:32:52.556Z,17.80
2017-11-03T02:33:57.186Z,17.80
2017-11-03T02:35:01.712Z,17.80
2017-11-03T02:36:06.379Z,17.80
2017-11-03T02:37:10.890Z,17.80
2017-11-03T02:38:15.762Z,17.80
2017-11-03T02:39:20.427Z,17.80
2017-11-03T02:40:25.254Z,17.80
2017-11-03T02:41:29.995Z,17.80
2017-11-03T02:42:34.755Z,17.80
2017-11-03T02:43:39.488Z,17.80
2017-11-03T02:44:44.090Z,17.80
2017-11-03T02:45:48.710Z,17.80
2017-11-03T02:46:53.313Z,17.80
2017-11-03T02:47:58.148Z,17.80
2017-11-03T02:49:02.815Z,17.80
2017-11-03T02:50:07.519Z,17.80
2017-11-03T02:51:12.357Z,17.80
2017-11-03T02:52:16.946Z,17.80
2017-11-03T02:53:21.657Z,17.80
2017-11-03T02:54:26.367Z,17.80
2017-11-03T02:55:30.951Z,17.80
2017-11-03T02:56:35.545Z,17.80
2017-11-03T02:57:40.329Z,17.80
2017-11-03T02:58:45.027Z,17.80
2017-11-03T02:59:49.978Z,17.80
2017-11-03T03:00:54.662Z,17.80
2017-11-03T03:01:59.338Z,17.80
2017-11-03T03:03:03.921Z,17.80
2017-11-03T03:04:08.618Z,17.80
2017-11-03T03:05:13.504Z,17.80
2017-11-03T03:06:18.316Z,17.80
2017-11-03T03:07:23.003Z,17.80
2017-11-03T03:08:27.750Z,17.80
2017-11-03T03:09:32.472Z,17.80
2017-11-03T03:10:37.226Z,17.80
2017-11-03T03:11:42.064Z,17.80
2017-11-03T03:12:46.849Z,17.80
2017-11-03T03:13:51.579Z,17.80
2017-11-03T03:14:56.293Z,17.80
2017-11-03T03:16:00.984Z,17.80
2017-11-03T03:17:05.719Z,17.80
2017-11-03T03:18:10.568Z,17.80
2017-11-03T03:19:15.269Z,17.80
2017-11-03T03:20:20.257Z,17.80
2017-11-03T03:21:24.996Z,17.80
2017-11-03T03:22:29.586Z,17.80
2017-11-03T03:23:34.157Z,17.80
2017-11-03T03:24:38.694Z,17.80
2017-11-03T03:25:43.401Z,17.80
2017-11-03T03:26:48.112Z,17.80
2017-11-03T03:27:52.798Z,17.80
2017-11-03T03:28:57.373Z,17.80
2017-11-03T03:30:02.107Z,17.80
2017-11-03T03:31:06.794Z,17.80
2017-11-03T03:32:11.603Z,17.80
2017-11-03T03:33:16.142Z,17.80
2017-11-03T03:34:20.764Z,17.80
2017-11-03T03:35:25.539Z,17.80
2017-11-03T03:36:30.240Z,17.80
2017-11-03T03:37:34.969Z,17.80
2017-11-03T03:38:39.670Z,17.80
2017-11-03T03:39:44.325Z,17.80
2017-11-03T03:40:49.189Z,17.80
2017-11-03T03:41:53.752Z,17.80
2017-11-03T03:42:58.323Z,17.80
2017-11-03T03:44:02.878Z,17.80
2017-11-03T03:45:07.440Z,17.80
2017-11-03T03:46:12.257Z,17.80
2017-11-03T03:47:17.084Z,17.80
2017-11-03T03:48:21.727Z,17.80
2017-11-03T03:49:26.389Z,17.80
2017-11-03T03:50:31.250Z,17.80
2017-11-03T03:51:36.131Z,17.80
2017-11-03T03:52:40.728Z,17.80
2017-11-03T03:53:45.397Z,17.80
2017-11-03T03:54:50.054Z,17.80
2017-11-03T03:55:54.686Z,17.80
2017-11-03T03:56:59.243Z,17.80
2017-11-03T03:58:04.082Z,17.80
2017-11-03T03:59:08.632Z,17.80
2017-11-03T04:00:13.235Z,17.80
2017-11-03T04:01:17.774Z,17.80
2017-11-03T04:02:22.568Z,17.80
2017-11-03T04:03:27.239Z,17.80
2017-11-03T04:04:31.904Z,17.80
2017-11-03T04:05:36.461Z,17.80
2017-11-03T04:06:41.117Z,17.80
2017-11-03T04:07:45.683Z,17.80
2017-11-03T04:08:50.210Z,17.80
2017-11-03T04:09:54.854Z,17.80
2017-11-03T04:10:59.522Z,17.80
2017-11-03T04:12:05.210Z,17.80
2017-11-03T04:13:09.931Z,17.80
2017-11-03T04:14:14.541Z,17.80
2017-11-03T04:15:19.312Z,17.80
2017-11-03T04:16:24.118Z,17.80
2017-11-03T04:17:28.704Z,17.80
2017-11-03T04:18:33.404Z,17.80
2017-11-03T04:19:38.108Z,17.80
2017-11-03T04:20:42.915Z,17.80
2017-11-03T04:21:47.745Z,17.80
2017-11-03T04:22:53.464Z,17.80
2017-11-03T04:23:58.588Z,17.80
2017-11-03T04:25:03.902Z,17.80
2017-11-03T04:26:09.054Z,17.80
2017-11-03T04:27:14.739Z,17.80
2017-11-03T04:28:20.116Z,17.80
2017-11-03T04:29:25.436Z,17.80
2017-11-03T04:30:30.684Z,17.80
2017-11-03T04:31:38.718Z,17.80
2017-11-03T04:32:44.197Z,17.80
2017-11-03T04:33:49.269Z,17.80
2017-11-03T04:34:54.307Z,17.80
2017-11-03T04:35:59.323Z,17.80
2017-11-03T04:37:04.307Z,17.80
2017-11-03T04:38:09.918Z,17.80
2017-11-03T04:39:15.017Z,17.80
2017-11-03T04:40:20.058Z,17.80
2017-11-03T04:41:24.974Z,17.80
2017-11-03T04:42:29.721Z,17.80
2017-11-03T04:43:35.064Z,17.80
2017-11-03T04:44:40.140Z,17.80
2017-11-03T04:45:45.058Z,17.80
2017-11-03T04:46:50.030Z,17.80
2017-11-03T04:47:55.102Z,17.80
2017-11-03T04:48:59.838Z,17.80
2017-11-03T04:50:05.084Z,17.80
2017-11-03T04:51:10.075Z,17.80
2017-11-03T04:52:15.531Z,17.80
2017-11-03T04:53:20.633Z,17.80
2017-11-03T04:54:25.949Z,17.80
2017-11-03T04:55:30.967Z,17.80
2017-11-03T04:56:36.896Z,17.80
2017-11-03T04:57:41.881Z,17.80
2017-11-03T04:58:47.115Z,17.80
2017-11-03T04:59:52.114Z,17.80
2017-11-03T05:00:57.893Z,17.80
2017-11-03T05:02:03.303Z,17.80
2017-11-03T05:03:08.485Z,17.80
2017-11-03T05:04:13.749Z,17.80
2017-11-03T05:05:19.330Z,17.80
2017-11-03T05:06:24.436Z,17.80
2017-11-03T05:07:29.462Z,17.80
2017-11-03T05:08:34.782Z,17.80
2017-11-03T05:09:40.178Z,17.80
2017-11-03T05:10:45.218Z,17.80
2017-11-03T05:11:50.419Z,17.80
2017-11-03T05:12:55.482Z,17.80
2017-11-03T05:14:00.712Z,17.80
2017-11-03T05:15:05.727Z,17.80
2017-11-03T05:16:10.768Z,17.80
2017-11-03T05:17:16.209Z,17.80
2017-11-03T05:18:21.253Z,17.80
2017-11-03T05:19:26.448Z,17.80
2017-11-03T05:20:31.366Z,17.80
2017-11-03T05:21:36.422Z,17.80
2017-11-03T05:22:41.500Z,17.80
2017-11-03T05:23:46.567Z,17.80
2017-11-03T05:24:51.452Z,17.80
2017-11-03T05:25:56.530Z,17.80
2017-11-03T05:27:01.635Z,17.80
2017-11-03T05:28:06.746Z,17.90
2017-11-03T05:29:11.881Z,17.90
2017-11-03T05:30:18.013Z,17.90
2017-11-03T05:31:23.150Z,17.90
2017-11-03T05:32:28.220Z,18.00
2017-11-03T05:33:33.603Z,18.00
2017-11-03T05:34:39.608Z,18.10
2017-11-03T05:35:45.968Z,18.10
2017-11-03T05:36:51.272Z,18.20
2017-11-03T05:37:56.500Z,18.30
2017-11-03T05:39:02.133Z,18.30
2017-11-03T05:40:07.333Z,18.40
2017-11-03T05:41:12.411Z,18.50
2017-11-03T05:42:17.510Z,18.60
2017-11-03T05:43:22.548Z,18.70
2017-11-03T05:44:27.639Z,18.70
2017-11-03T05:45:32.372Z,18.80
2017-11-03T05:46:37.302Z,18.90
2017-11-03T05:47:42.545Z,19.00
2017-11-03T05:48:47.536Z,19.10
2017-11-03T05:49:52.317Z,19.20
2017-11-03T05:50:57.298Z,19.20
2017-11-03T05:52:02.185Z,19.30
2017-11-03T05:53:07.552Z,19.40
2017-11-03T05:54:12.667Z,19.40
2017-11-03T05:55:17.516Z,19.50
2017-11-03T05:56:22.602Z,19.60
2017-11-03T05:57:27.620Z,19.60
2017-11-03T05:58:32.589Z,19.60
2017-11-03T05:59:37.610Z,19.70
2017-11-03T06:00:42.708Z,19.70
2017-11-03T06:01:47.776Z,19.70
2017-11-03T06:02:53.179Z,19.80
2017-11-03T06:03:58.540Z,19.80
2017-11-03T06:05:03.855Z,19.80
2017-11-03T06:06:09.242Z,19.80
2017-11-03T06:07:14.153Z,19.90
2017-11-03T06:08:19.306Z,19.90
2017-11-03T06:09:24.404Z,19.90
2017-11-03T06:10:29.532Z,19.90
2017-11-03T06:11:34.841Z,20.00
2017-11-03T06:12:40.074Z,20.00
2017-11-03T06:13:45.331Z,20.00
2017-11-03T06:14:50.510Z,20.00
2017-11-03T06:15:55.720Z,20.00
2017-11-03T06:17:00.729Z,20.00
2017-11-03T06:18:06.029Z,20.00
2017-11-03T06:19:11.106Z,20.10
2017-11-03T06:20:16.330Z,20.00
2017-11-03T06:21:21.580Z,20.00
2017-11-03T06:22:27.907Z,19.90
2017-11-03T06:23:33.161Z,19.90
2017-11-03T06:24:38.328Z,19.90
2017-11-03T06:25:43.479Z,19.90
2017-11-03T06:26:49.938Z,19.90
2017-11-03T06:27:55.163Z,19.90
2017-11-03T06:29:00.219Z,20.00
2017-11-03T06:30:05.253Z,20.00
2017-11-03T06:31:10.463Z,20.00
2017-11-03T06:32:15.693Z,20.00
2017-11-03T06:33:20.629Z,20.00
2017-11-03T06:34:25.935Z,19.90
2017-11-03T06:35:31.254Z,19.90
2017-11-03T06:36:36.389Z,19.80
2017-11-03T06:37:41.799Z,19.90
2017-11-03T06:38:46.940Z,19.80
2017-11-03T06:39:51.951Z,19.80
2017-11-03T06:40:57.324Z,19.80
2017-11-03T06:42:02.511Z,19.70
2017-11-03T06:43:07.909Z,19.70
2017-11-03T06:44:13.099Z,19.70
2017-11-03T06:45:25.986Z,19.70
2017-11-03T06:46:31.362Z,19.70
2017-11-03T06:47:36.459Z,19.70
2017-11-03T06:48:41.848Z,19.70
2017-11-03T06:49:47.048Z,19.70
2017-11-03T06:50:52.565Z,19.70
2017-11-03T06:51:57.998Z,19.80
2017-11-03T06:53:02.934Z,19.80
2017-11-03T06:54:08.198Z,19.80
2017-11-03T06:55:13.524Z,19.80
2017-11-03T06:56:18.951Z,19.80
2017-11-03T06:57:23.887Z,19.90
2017-11-03T06:58:28.853Z,19.90
2017-11-03T06:59:34.226Z,19.90
2017-11-03T07:00:39.512Z,19.90
2017-11-03T07:01:44.695Z,20.00
2017-11-03T07:02:49.671Z,20.00
2017-11-03T07:03:55.085Z,20.00
2017-11-03T07:05:00.331Z,20.00
2017-11-03T07:06:05.363Z,20.00
2017-11-03T07:07:10.642Z,20.00
2017-11-03T07:08:15.719Z,20.00
2017-11-03T07:09:20.775Z,20.00
2017-11-03T07:10:25.942Z,20.00
2017-11-03T07:11:31.749Z,20.00
2017-11-03T07:12:36.826Z,20.00
2017-11-03T07:13:41.647Z,20.00
2017-11-03T07:14:46.527Z,19.90
2017-11-03T07:15:52.366Z,19.90
2017-11-03T07:16:57.836Z,19.80
2017-11-03T07:18:02.906Z,19.80
2017-11-03T07:19:08.001Z,19.70
2017-11-03T07:20:13.042Z,19.70
2017-11-03T07:21:18.136Z,19.70
2017-11-03T07:22:23.515Z,19.70
2017-11-03T07:23:28.762Z,19.60
2017-11-03T07:24:34.178Z,19.70
2017-11-03T07:25:39.423Z,19.60
2017-11-03T07:26:44.437Z,19.70
2017-11-03T07:27:49.571Z,19.60
2017-11-03T07:28:54.899Z,19.60
2017-11-03T07:29:59.829Z,19.60
2017-11-03T07:31:04.845Z,19.60
2017-11-03T07:32:10.167Z,19.60
2017-11-03T07:33:22.436Z,19.60
2017-11-03T07:34:27.211Z,19.60
2017-11-03T07:35:32.501Z,19.60
2017-11-03T07:36:37.399Z,19.60
2017-11-03T07:37:42.650Z,19.60
2017-11-03T07:38:47.883Z,19.60
2017-11-03T07:39:53.107Z,19.60
2017-11-03T07:40:58.281Z,19.60
2017-11-03T07:42:03.803Z,19.60
2017-11-03T07:43:08.923Z,19.60
2017-11-03T07:44:14.433Z,19.60
2017-11-03T07:45:19.909Z,19.60
2017-11-03T07:46:25.035Z,19.60
2017-11-03T07:47:30.735Z,19.60
2017-11-03T07:48:36.158Z,19.60
2017-11-03T07:49:41.403Z,19.60
2017-11-03T07:50:46.357Z,19.60
2017-11-03T07:51:51.457Z,19.60
2017-11-03T07:52:56.498Z,19.60
2017-11-03T07:54:02.760Z,19.70
2017-11-03T07:55:08.358Z,19.60
2017-11-03T07:56:15.042Z,19.60
2017-11-03T07:57:20.488Z,19.70
2017-11-03T07:58:25.595Z,19.60
2017-11-03T07:59:30.823Z,19.70
2017-11-03T08:00:36.176Z,19.70
2017-11-03T08:01:41.332Z,19.60
2017-11-03T08:02:46.537Z,19.70
2017-11-03T08:03:51.734Z,19.60
2017-11-03T08:04:58.163Z,19.70
2017-11-03T08:06:07.331Z,19.70
2017-11-03T08:10:34.999Z,19.70
2017-11-03T08:11:07.255Z,19.70
2017-11-03T08:12:43.665Z,19.70
2017-11-03T08:15:41.152Z,19.60
2017-11-03T08:18:09.463Z,19.70
2017-11-03T08:19:48.870Z,19.70
2017-11-03T08:23:57.212Z,19.70
2017-11-03T08:25:44.877Z,19.70
2017-11-03T08:27:18.895Z,19.70
2017-11-03T18:02:27.302Z,19.70
2017-11-03T18:03:33.082Z,19.30
2017-11-03T18:04:38.399Z,19.30
2017-11-03T18:05:44.012Z,19.30
2017-11-03T18:06:49.495Z,19.20
2017-11-03T18:07:55.100Z,19.20
2017-11-03T18:09:00.603Z,19.20
2017-11-03T18:10:07.375Z,19.20
2017-11-03T18:11:12.681Z,19.20
2017-11-03T18:12:18.449Z,19.20
2017-11-03T18:13:23.662Z,19.20
2017-11-03T18:14:29.093Z,19.20
2017-11-03T18:15:34.353Z,19.20
2017-11-03T18:16:39.880Z,19.20
2017-11-03T18:17:45.340Z,19.20
2017-11-03T18:18:50.857Z,19.20
2017-11-03T18:19:56.150Z,19.20
2017-11-03T18:21:02.296Z,19.10
2017-11-03T18:22:07.898Z,19.10
2017-11-03T18:23:13.405Z,19.10
2017-11-03T18:24:18.894Z,19.10
2017-11-03T18:25:25.880Z,19.10
2017-11-03T18:26:31.640Z,19.10
2017-11-03T18:27:37.488Z,19.10
2017-11-03T18:28:43.143Z,19.10
2017-11-03T18:29:48.651Z,19.10
2017-11-03T18:30:54.205Z,19.10
2017-11-03T18:31:59.555Z,19.10
2017-11-03T18:33:05.186Z,19.10
2017-11-03T18:34:10.626Z,19.10
2017-11-03T18:35:16.266Z,19.10
2017-11-03T18:36:22.266Z,19.10
2017-11-03T18:37:28.097Z,19.10
2017-11-03T18:38:33.506Z,19.10
2017-11-03T18:39:39.233Z,19.10
2017-11-03T18:40:45.921Z,19.10
2017-11-03T18:41:50.852Z,19.10
2017-11-03T18:42:55.843Z,19.00
2017-11-03T18:44:01.176Z,19.00
2017-11-03T18:45:06.553Z,19.00
2017-11-03T18:46:12.089Z,19.00
2017-11-03T18:47:17.463Z,19.00
2017-11-03T18:48:22.670Z,19.00
2017-11-03T18:49:28.415Z,19.00
2017-11-03T18:50:33.922Z,19.00
2017-11-03T18:51:40.755Z,19.00
2017-11-03T18:52:46.261Z,19.10
2017-11-03T18:53:51.758Z,19.10
2017-11-03T18:54:57.152Z,19.10
2017-11-03T18:56:02.579Z,19.10
2017-11-03T18:57:08.058Z,19.10
2017-11-03T18:58:13.556Z,19.10
2017-11-03T18:59:18.917Z,19.10
2017-11-03T19:00:24.207Z,19.10
2017-11-03T19:01:29.646Z,19.10
2017-11-03T19:02:35.073Z,19.10
2017-11-03T19:03:40.509Z,19.10
2017-11-03T19:04:45.809Z,19.10
2017-11-03T19:05:51.139Z,19.10
2017-11-03T19:06:57.040Z,19.10
2017-11-03T19:08:03.902Z,19.00
2017-11-03T19:09:09.199Z,18.90
2017-11-03T19:10:14.766Z,18.80
2017-11-03T19:11:19.895Z,18.80
2017-11-03T19:12:25.505Z,18.70
2017-11-03T19:13:30.836Z,18.60
2017-11-03T19:14:36.634Z,18.50
2017-11-03T19:15:42.091Z,18.50
2017-11-03T19:16:47.453Z,18.50
2017-11-03T19:17:52.843Z,18.40
2017-11-03T19:18:58.581Z,18.40
2017-11-03T19:20:04.109Z,18.40
2017-11-03T19:21:09.681Z,18.30
2017-11-03T19:22:15.011Z,18.30
2017-11-03T19:23:20.868Z,18.20
2017-11-03T19:24:26.431Z,18.20
2017-11-03T19:25:32.174Z,18.20
2017-11-03T19:26:38.210Z,18.20
2017-11-03T19:27:43.730Z,18.20
2017-11-03T19:28:50.081Z,18.10
2017-11-03T19:29:55.589Z,18.10
2017-11-03T19:31:01.153Z,18.10
2017-11-03T19:32:06.688Z,18.10
2017-11-03T19:33:12.416Z,18.10
2017-11-03T19:34:18.037Z,18.10
2017-11-03T19:35:23.308Z,18.10
2017-11-03T19:36:28.531Z,18.10
2017-11-03T19:37:33.974Z,18.10
2017-11-03T19:38:39.158Z,18.10
2017-11-03T19:39:44.850Z,18.20
2017-11-03T19:40:51.837Z,18.30
2017-11-03T19:41:57.571Z,18.40
2017-11-03T19:43:03.858Z,18.40
2017-11-03T19:44:09.267Z,18.50
2017-11-03T19:45:14.741Z,18.60
2017-11-03T19:46:20.617Z,18.70
2017-11-03T19:47:26.247Z,18.80
2017-11-03T19:48:31.781Z,18.90
2017-11-03T19:49:37.032Z,19.00
2017-11-03T19:50:42.350Z,19.10
2017-11-03T19:51:47.823Z,19.20
2017-11-03T19:52:53.308Z,19.20
2017-11-03T19:53:58.509Z,19.30
2017-11-03T19:55:05.390Z,19.40
2017-11-03T19:56:11.566Z,19.40
2017-11-03T19:57:18.307Z,19.50
2017-11-03T19:58:23.948Z,19.60
2017-11-03T19:59:29.585Z,19.70
2017-11-03T20:00:35.070Z,19.70
2017-11-03T20:01:40.399Z,19.80
2017-11-03T20:02:46.073Z,19.90
2017-11-03T20:03:52.029Z,19.90
2017-11-03T20:04:57.680Z,19.90
2017-11-03T20:06:03.353Z,20.00
2017-11-03T20:07:08.686Z,20.00
2017-11-03T20:08:14.650Z,20.00
2017-11-03T20:09:20.201Z,20.10
2017-11-03T20:10:25.578Z,20.10
2017-11-03T20:11:31.413Z,20.10
2017-11-03T20:12:37.000Z,20.10
2017-11-03T20:13:42.258Z,20.20
2017-11-03T20:14:48.969Z,20.10
2017-11-03T20:15:55.039Z,20.20
2017-11-03T20:17:00.546Z,20.20
2017-11-03T20:18:06.068Z,20.20
2017-11-03T20:19:11.308Z,20.20
2017-11-03T20:20:16.718Z,20.30
2017-11-03T20:21:22.365Z,20.30
2017-11-03T20:22:27.777Z,20.20
2017-11-03T20:23:33.274Z,20.30
2017-11-03T20:24:38.693Z,20.20
2017-11-03T20:25:44.199Z,20.30
2017-11-03T20:26:49.556Z,20.30
2017-11-03T20:27:55.070Z,20.20
2017-11-03T20:29:00.810Z,20.20
2017-11-03T20:30:06.701Z,20.10
2017-11-03T20:31:12.925Z,20.10
2017-11-03T20:32:18.544Z,20.10
2017-11-03T20:33:24.425Z,20.10
2017-11-03T20:34:30.128Z,20.10
2017-11-03T20:35:35.570Z,20.10
2017-11-03T20:36:41.145Z,20.10
2017-11-03T20:37:46.790Z,20.10
2017-11-03T20:38:52.327Z,20.10
2017-11-03T20:39:58.093Z,20.10
2017-11-03T20:41:03.912Z,20.10
2017-11-03T20:42:09.443Z,20.10
2017-11-03T20:43:15.546Z,20.00
2017-11-03T20:44:21.436Z,20.00
2017-11-03T20:45:27.283Z,20.10
2017-11-03T20:46:33.495Z,20.00
2017-11-03T20:47:39.015Z,20.00
2017-11-03T20:48:44.920Z,20.00
2017-11-03T20:49:50.453Z,20.10
2017-11-03T20:50:55.994Z,20.00
2017-11-03T20:52:01.913Z,20.00
2017-11-03T20:53:07.437Z,20.00
2017-11-03T20:54:12.809Z,20.00
2017-11-03T20:55:18.112Z,20.00
2017-11-03T20:56:23.604Z,20.00
2017-11-03T20:57:29.151Z,20.00
2017-11-03T20:58:34.537Z,20.00
2017-11-03T20:59:40.005Z,19.90
2017-11-03T21:00:45.338Z,20.00
2017-11-03T21:01:52.217Z,19.90
2017-11-03T21:02:57.556Z,19.90
2017-11-03T21:04:03.004Z,19.90
2017-11-03T21:05:08.289Z,19.90
2017-11-03T21:06:13.672Z,19.90
2017-11-03T21:07:19.005Z,19.90
2017-11-03T21:08:24.416Z,19.90
2017-11-03T21:09:29.957Z,19.90
2017-11-03T21:10:35.461Z,19.90
2017-11-03T21:11:40.593Z,19.90
2017-11-03T21:12:45.928Z,19.90
2017-11-03T21:13:50.975Z,19.90
2017-11-03T21:14:56.320Z,19.90
2017-11-03T21:16:01.795Z,19.90
2017-11-03T21:17:07.829Z,19.90
2017-11-03T21:18:13.554Z,19.90
2017-11-03T21:19:18.802Z,19.90
2017-11-03T21:20:24.290Z,19.90
2017-11-03T21:21:30.053Z,19.90
2017-11-03T21:22:35.794Z,19.90
2017-11-03T21:23:41.425Z,19.90
2017-11-03T21:24:47.197Z,19.90
2017-11-03T21:25:52.588Z,19.90
2017-11-03T21:26:58.451Z,19.90
2017-11-03T21:28:05.494Z,19.90
2017-11-03T21:29:11.059Z,19.90
2017-11-03T21:30:16.535Z,19.90
2017-11-03T21:31:21.625Z,19.90
2017-11-03T21:32:27.053Z,19.90
2017-11-03T21:33:33.139Z,19.90
2017-11-03T21:34:38.363Z,19.90
2017-11-03T21:35:43.566Z,19.90
2017-11-03T21:36:49.200Z,19.90
2017-11-03T21:37:54.568Z,19.80
2017-11-03T21:38:59.980Z,19.80
2017-11-03T21:40:05.303Z,19.90
2017-11-03T21:41:10.627Z,19.90
2017-11-03T21:42:15.842Z,19.90
2017-11-03T21:43:21.968Z,19.80
2017-11-03T21:44:27.241Z,19.80
2017-11-03T21:45:32.692Z,19.80
2017-11-03T21:46:38.220Z,19.80
2017-11-03T21:47:43.541Z,19.80
2017-11-03T21:48:48.799Z,19.80
2017-11-03T21:49:53.885Z,19.80
2017-11-03T21:50:59.530Z,19.70
2017-11-03T21:52:04.899Z,19.70
2017-11-03T21:53:10.507Z,19.70
2017-11-03T21:54:15.845Z,19.70
2017-11-03T21:55:20.992Z,19.70
2017-11-03T21:56:26.365Z,19.70
2017-11-03T21:57:31.520Z,19.70
2017-11-03T21:58:36.953Z,19.70
2017-11-03T21:59:42.530Z,19.60
2017-11-03T22:00:48.009Z,19.60
2017-11-03T22:01:53.195Z,19.70
2017-11-03T22:02:58.495Z,19.70
2017-11-03T22:04:04.055Z,19.70
2017-11-03T22:05:09.136Z,19.70
2017-11-03T22:06:14.372Z,19.60
2017-11-03T22:07:19.679Z,19.70
2017-11-03T22:08:25.037Z,19.70
2017-11-03T22:09:30.414Z,19.70
2017-11-03T22:10:35.705Z,19.70
2017-11-03T22:11:41.237Z,19.60
2017-11-03T22:12:46.637Z,19.60
2017-11-03T22:13:52.072Z,19.60
2017-11-03T22:14:57.222Z,19.60
2017-11-03T22:16:02.688Z,19.60
2017-11-03T22:17:08.909Z,19.60
2017-11-03T22:18:14.409Z,19.60
2017-11-03T22:19:19.868Z,19.60
2017-11-03T22:20:25.138Z,19.60
2017-11-03T22:21:30.743Z,19.60
2017-11-03T22:22:36.085Z,19.60
2017-11-03T22:23:41.432Z,19.60
2017-11-03T22:24:46.920Z,19.60
2017-11-03T22:25:52.172Z,19.60
2017-11-03T22:26:57.356Z,19.60
2017-11-03T22:28:02.791Z,19.60
2017-11-03T22:29:07.988Z,19.60
2017-11-03T22:30:13.391Z,19.60
2017-11-03T22:31:18.420Z,19.50
2017-11-03T22:32:23.467Z,19.60
2017-11-03T22:33:31.368Z,19.50
2017-11-03T22:34:36.483Z,19.50
2017-11-03T22:35:41.924Z,19.50
2017-11-03T22:36:47.352Z,19.50
2017-11-03T22:37:52.702Z,19.50
2017-11-03T22:38:57.871Z,19.50
2017-11-03T22:40:03.288Z,19.50
2017-11-03T22:41:08.447Z,19.50
2017-11-03T22:42:13.604Z,19.50
2017-11-03T22:43:18.980Z,19.50
2017-11-03T22:44:24.340Z,19.50
2017-11-03T22:45:29.844Z,19.50
2017-11-03T22:46:35.140Z,19.50
2017-11-03T22:47:40.288Z,19.50
2017-11-03T22:48:47.155Z,19.50
2017-11-03T22:49:53.261Z,19.50
2017-11-03T22:50:58.948Z,19.50
2017-11-03T22:52:04.318Z,19.50
2017-11-03T22:53:09.685Z,19.50
2017-11-03T22:54:15.126Z,19.50
2017-11-03T22:55:20.322Z,19.50
2017-11-03T22:56:25.711Z,19.50
2017-11-03T22:57:31.184Z,19.50
2017-11-03T22:58:36.567Z,19.50
2017-11-03T22:59:42.054Z,19.50
2017-11-03T23:00:47.833Z,19.50
2017-11-03T23:01:53.388Z,19.50
2017-11-03T23:02:59.113Z,19.50
2017-11-03T23:04:06.191Z,19.50
2017-11-03T23:05:12.160Z,19.50
2017-11-03T23:06:17.781Z,19.50
2017-11-03T23:07:23.491Z,19.50
2017-11-03T23:08:29.018Z,19.50
2017-11-03T23:09:34.392Z,19.50
2017-11-03T23:10:39.636Z,19.50
2017-11-03T23:11:44.919Z,19.50
2017-11-03T23:12:50.245Z,19.50
2017-11-03T23:13:55.372Z,19.50
2017-11-03T23:15:00.732Z,19.50
2017-11-03T23:16:06.245Z,19.50
2017-11-03T23:17:11.679Z,19.40
2017-11-03T23:18:17.304Z,19.40
2017-11-03T23:19:22.764Z,19.40
2017-11-03T23:20:28.332Z,19.40
2017-11-03T23:21:34.204Z,19.40
2017-11-03T23:22:39.382Z,19.40
2017-11-03T23:23:44.870Z,19.40
2017-11-03T23:24:51.368Z,19.40
2017-11-03T23:25:56.833Z,19.40
2017-11-03T23:27:02.362Z,19.40
2017-11-03T23:28:07.835Z,19.40
2017-11-03T23:29:13.163Z,19.40
2017-11-03T23:30:18.563Z,19.40
2017-11-03T23:31:24.095Z,19.40
2017-11-03T23:32:29.503Z,19.40
2017-11-03T23:33:35.023Z,19.40
2017-11-03T23:34:40.668Z,19.40
2017-11-03T23:35:46.415Z,19.30
2017-11-03T23:36:53.142Z,19.40
2017-11-03T23:37:58.344Z,19.30
2017-11-03T23:39:04.072Z,19.30
2017-11-03T23:40:09.460Z,19.30
2017-11-03T23:41:14.648Z,19.30
2017-11-03T23:42:20.277Z,19.30
2017-11-03T23:43:25.801Z,19.30
2017-11-03T23:44:31.455Z,19.30
2017-11-03T23:45:36.900Z,19.30
2017-11-03T23:46:42.318Z,19.30